sensor_id;sensor_type;location;lat;lon;timestamp;temperature;humidity
34640;DHT22;22600;48.186;11.526;2023-03-19T00:01:40;22.30;55.50
34640;DHT22;22600;48.186;11.526;2023-03-19T00:04:06;22.40;55.30
34640;DHT22;22600;48.186;11.526;2023-03-19T00:06:32;22.30;55.50
34640;DHT22;22600;48.186;11.526;2023-03-19T00:08:57;22.30;55.80
34640;DHT22;22600;48.186;11.526;2023-03-19T00:11:23;22.30;55.90
34640;DHT22;22600;48.186;11.526;2023-03-19T00:13:49;22.30;55.90
34640;DHT22;22600;48.186;11.526;2023-03-19T00:16:14;22.30;55.90
34640;DHT22;22600;48.186;11.526;2023-03-19T00:18:40;22.30;55.80
34640;DHT22;22600;48.186;11.526;2023-03-19T00:21:06;22.30;56.00
34640;DHT22;22600;48.186;11.526;2023-03-19T00:23:31;22.30;56.00
34640;DHT22;22600;48.186;11.526;2023-03-19T00:25:57;22.30;56.00
34640;DHT22;22600;48.186;11.526;2023-03-19T00:28:22;22.30;56.20
34640;DHT22;22600;48.186;11.526;2023-03-19T00:30:48;23.50;56.70
34640;DHT22;22600;48.186;11.526;2023-03-19T00:33:13;22.40;56.20
34640;DHT22;22600;48.186;11.526;2023-03-19T00:35:39;22.30;56.20
34640;DHT22;22600;48.186;11.526;2023-03-19T00:38:04;22.30;56.30
34640;DHT22;22600;48.186;11.526;2023-03-19T00:40:30;22.30;56.20
34640;DHT22;22600;48.186;11.526;2023-03-19T00:42:56;22.40;56.20
34640;DHT22;22600;48.186;11.526;2023-03-19T00:45:21;18.90;54.90
34640;DHT22;22600;48.186;11.526;2023-03-19T00:47:47;22.30;55.80
34640;DHT22;22600;48.186;11.526;2023-03-19T00:50:12;22.30;55.90
34640;DHT22;22600;48.186;11.526;2023-03-19T00:52:38;22.30;56.00
34640;DHT22;22600;48.186;11.526;2023-03-19T00:55:03;22.30;56.20
34640;DHT22;22600;48.186;11.526;2023-03-19T00:57:29;22.30;56.30
34640;DHT22;22600;48.186;11.526;2023-03-19T00:59:54;22.30;56.30
34640;DHT22;22600;48.186;11.526;2023-03-19T01:02:20;22.40;56.10
34640;DHT22;22600;48.186;11.526;2023-03-19T01:04:48;22.30;56.10
34640;DHT22;22600;48.186;11.526;2023-03-19T01:07:14;22.30;56.00
34640;DHT22;22600;48.186;11.526;2023-03-19T01:09:39;22.40;56.10
34640;DHT22;22600;48.186;11.526;2023-03-19T01:12:05;22.40;56.20
34640;DHT22;22600;48.186;11.526;2023-03-19T01:14:31;22.40;56.10
34640;DHT22;22600;48.186;11.526;2023-03-19T01:16:57;22.40;56.10
34640;DHT22;22600;48.186;11.526;2023-03-19T01:19:22;22.40;56.20
34640;DHT22;22600;48.186;11.526;2023-03-19T01:21:48;24.90;57.40
34640;DHT22;22600;48.186;11.526;2023-03-19T01:24:14;22.40;56.30
34640;DHT22;22600;48.186;11.526;2023-03-19T01:26:39;22.40;56.30
34640;DHT22;22600;48.186;11.526;2023-03-19T01:29:05;22.40;56.30
34640;DHT22;22600;48.186;11.526;2023-03-19T01:31:31;22.40;56.20
34640;DHT22;22600;48.186;11.526;2023-03-19T01:33:56;22.40;56.90
34640;DHT22;22600;48.186;11.526;2023-03-19T01:36:21;22.40;57.00
34640;DHT22;22600;48.186;11.526;2023-03-19T01:38:47;22.40;57.00
34640;DHT22;22600;48.186;11.526;2023-03-19T01:41:13;22.40;57.00
34640;DHT22;22600;48.186;11.526;2023-03-19T01:43:38;22.60;57.10
34640;DHT22;22600;48.186;11.526;2023-03-19T01:46:05;22.40;57.00
34640;DHT22;22600;48.186;11.526;2023-03-19T01:50:56;22.40;56.90
34640;DHT22;22600;48.186;11.526;2023-03-19T01:53:23;22.40;57.00
34640;DHT22;22600;48.186;11.526;2023-03-19T01:55:50;22.40;56.90
34640;DHT22;22600;48.186;11.526;2023-03-19T01:58:16;22.40;57.30
34640;DHT22;22600;48.186;11.526;2023-03-19T02:00:42;22.40;56.60
34640;DHT22;22600;48.186;11.526;2023-03-19T02:03:07;22.40;56.40
34640;DHT22;22600;48.186;11.526;2023-03-19T02:05:34;22.40;56.30
34640;DHT22;22600;48.186;11.526;2023-03-19T02:08:02;22.40;56.30
34640;DHT22;22600;48.186;11.526;2023-03-19T02:10:29;22.40;56.20
34640;DHT22;22600;48.186;11.526;2023-03-19T02:12:55;22.40;56.40
34640;DHT22;22600;48.186;11.526;2023-03-19T02:15:20;22.40;56.80
34640;DHT22;22600;48.186;11.526;2023-03-19T02:17:46;22.40;57.00
34640;DHT22;22600;48.186;11.526;2023-03-19T02:20:31;22.40;57.00
34640;DHT22;22600;48.186;11.526;2023-03-19T02:28:11;22.40;56.30
34640;DHT22;22600;48.186;11.526;2023-03-19T02:30:37;22.40;56.30
34640;DHT22;22600;48.186;11.526;2023-03-19T02:33:03;22.40;56.40
34640;DHT22;22600;48.186;11.526;2023-03-19T02:35:29;22.40;56.10
34640;DHT22;22600;48.186;11.526;2023-03-19T02:37:56;22.40;56.20
34640;DHT22;22600;48.186;11.526;2023-03-19T02:40:22;22.40;55.90
34640;DHT22;22600;48.186;11.526;2023-03-19T02:42:48;22.40;55.90
34640;DHT22;22600;48.186;11.526;2023-03-19T02:45:14;22.40;55.90
34640;DHT22;22600;48.186;11.526;2023-03-19T02:47:40;22.40;55.90
34640;DHT22;22600;48.186;11.526;2023-03-19T02:50:06;22.40;55.80
34640;DHT22;22600;48.186;11.526;2023-03-19T02:52:32;22.40;55.90
34640;DHT22;22600;48.186;11.526;2023-03-19T02:54:57;22.30;55.90
34640;DHT22;22600;48.186;11.526;2023-03-19T02:57:23;22.40;56.20
34640;DHT22;22600;48.186;11.526;2023-03-19T02:59:48;22.40;56.60
34640;DHT22;22600;48.186;11.526;2023-03-19T03:02:14;25.50;58.20
34640;DHT22;22600;48.186;11.526;2023-03-19T03:04:39;22.60;56.90
34640;DHT22;22600;48.186;11.526;2023-03-19T03:07:06;22.40;56.60
34640;DHT22;22600;48.186;11.526;2023-03-19T03:09:31;22.40;56.60
34640;DHT22;22600;48.186;11.526;2023-03-19T03:11:57;22.40;56.70
34640;DHT22;22600;48.186;11.526;2023-03-19T03:14:22;22.30;56.70
34640;DHT22;22600;48.186;11.526;2023-03-19T03:16:49;22.40;57.20
34640;DHT22;22600;48.186;11.526;2023-03-19T03:19:15;25.70;59.00
34640;DHT22;22600;48.186;11.526;2023-03-19T03:21:41;22.40;57.50
34640;DHT22;22600;48.186;11.526;2023-03-19T03:24:07;22.40;57.40
34640;DHT22;22600;48.186;11.526;2023-03-19T03:26:33;22.40;57.30
34640;DHT22;22600;48.186;11.526;2023-03-19T03:29:00;22.40;57.20
34640;DHT22;22600;48.186;11.526;2023-03-19T03:31:25;23.80;57.80
34640;DHT22;22600;48.186;11.526;2023-03-19T03:33:51;22.40;57.00
34640;DHT22;22600;48.186;11.526;2023-03-19T03:36:16;22.40;56.70
34640;DHT22;22600;48.186;11.526;2023-03-19T03:38:42;22.40;56.50
34640;DHT22;22600;48.186;11.526;2023-03-19T03:41:08;22.30;56.30
34640;DHT22;22600;48.186;11.526;2023-03-19T03:43:34;22.40;56.20
34640;DHT22;22600;48.186;11.526;2023-03-19T03:45:59;22.40;56.30
34640;DHT22;22600;48.186;11.526;2023-03-19T03:48:25;22.40;56.80
34640;DHT22;22600;48.186;11.526;2023-03-19T03:50:50;22.40;57.10
34640;DHT22;22600;48.186;11.526;2023-03-19T03:53:16;22.40;57.00
34640;DHT22;22600;48.186;11.526;2023-03-19T03:55:41;22.40;56.80
34640;DHT22;22600;48.186;11.526;2023-03-19T03:58:07;22.40;56.60
34640;DHT22;22600;48.186;11.526;2023-03-19T04:00:32;22.40;56.60
34640;DHT22;22600;48.186;11.526;2023-03-19T04:02:58;22.40;56.40
34640;DHT22;22600;48.186;11.526;2023-03-19T04:05:23;22.40;56.30
34640;DHT22;22600;48.186;11.526;2023-03-19T04:07:50;22.30;56.20
34640;DHT22;22600;48.186;11.526;2023-03-19T04:10:15;22.30;56.30
34640;DHT22;22600;48.186;11.526;2023-03-19T04:12:41;22.40;56.30
34640;DHT22;22600;48.186;11.526;2023-03-19T04:15:07;22.40;56.40
34640;DHT22;22600;48.186;11.526;2023-03-19T04:17:33;22.40;57.20
34640;DHT22;22600;48.186;11.526;2023-03-19T04:20:00;22.40;56.50
34640;DHT22;22600;48.186;11.526;2023-03-19T04:22:26;22.40;56.50
34640;DHT22;22600;48.186;11.526;2023-03-19T04:24:51;22.40;56.50
34640;DHT22;22600;48.186;11.526;2023-03-19T04:27:17;22.40;56.50
34640;DHT22;22600;48.186;11.526;2023-03-19T04:29:42;22.40;56.40
34640;DHT22;22600;48.186;11.526;2023-03-19T04:32:08;20.30;55.40
34640;DHT22;22600;48.186;11.526;2023-03-19T04:34:33;22.20;56.30
34640;DHT22;22600;48.186;11.526;2023-03-19T04:36:59;22.40;56.40
34640;DHT22;22600;48.186;11.526;2023-03-19T04:39:24;22.30;56.40
34640;DHT22;22600;48.186;11.526;2023-03-19T04:41:50;22.40;56.40
34640;DHT22;22600;48.186;11.526;2023-03-19T04:44:16;22.30;56.40
34640;DHT22;22600;48.186;11.526;2023-03-19T04:46:42;22.40;56.50
34640;DHT22;22600;48.186;11.526;2023-03-19T04:49:09;22.40;56.30
34640;DHT22;22600;48.186;11.526;2023-03-19T04:51:34;22.40;56.80
34640;DHT22;22600;48.186;11.526;2023-03-19T04:54:00;22.30;56.90
34640;DHT22;22600;48.186;11.526;2023-03-19T04:56:25;22.30;56.70
34640;DHT22;22600;48.186;11.526;2023-03-19T04:58:52;22.40;56.60
34640;DHT22;22600;48.186;11.526;2023-03-19T05:01:17;22.30;56.50
34640;DHT22;22600;48.186;11.526;2023-03-19T05:03:43;22.30;56.60
34640;DHT22;22600;48.186;11.526;2023-03-19T05:06:09;22.30;56.60
34640;DHT22;22600;48.186;11.526;2023-03-19T05:08:34;22.40;56.90
34640;DHT22;22600;48.186;11.526;2023-03-19T05:11:00;22.30;56.90
34640;DHT22;22600;48.186;11.526;2023-03-19T05:13:25;22.30;57.00
34640;DHT22;22600;48.186;11.526;2023-03-19T05:15:52;22.30;56.90
34640;DHT22;22600;48.186;11.526;2023-03-19T05:18:18;22.10;56.60
34640;DHT22;22600;48.186;11.526;2023-03-19T05:20:43;22.40;57.30
34640;DHT22;22600;48.186;11.526;2023-03-19T05:23:09;22.50;57.50
34640;DHT22;22600;48.186;11.526;2023-03-19T05:25:35;22.30;57.20
34640;DHT22;22600;48.186;11.526;2023-03-19T05:28:01;22.30;57.20
34640;DHT22;22600;48.186;11.526;2023-03-19T05:30:26;22.40;57.30
34640;DHT22;22600;48.186;11.526;2023-03-19T05:32:52;22.30;57.10
34640;DHT22;22600;48.186;11.526;2023-03-19T05:35:17;22.40;57.10
34640;DHT22;22600;48.186;11.526;2023-03-19T05:37:43;22.40;57.40
34640;DHT22;22600;48.186;11.526;2023-03-19T05:40:09;22.30;57.40
34640;DHT22;22600;48.186;11.526;2023-03-19T05:42:35;22.40;57.00
34640;DHT22;22600;48.186;11.526;2023-03-19T05:45:00;22.30;56.90
34640;DHT22;22600;48.186;11.526;2023-03-19T05:47:26;22.40;56.90
34640;DHT22;22600;48.186;11.526;2023-03-19T05:49:52;22.30;57.00
34640;DHT22;22600;48.186;11.526;2023-03-19T05:52:17;22.30;57.00
34640;DHT22;22600;48.186;11.526;2023-03-19T05:54:43;22.40;57.10
34640;DHT22;22600;48.186;11.526;2023-03-19T05:57:08;22.40;57.30
34640;DHT22;22600;48.186;11.526;2023-03-19T05:59:34;22.30;57.20
34640;DHT22;22600;48.186;11.526;2023-03-19T06:02:00;22.30;57.10
34640;DHT22;22600;48.186;11.526;2023-03-19T06:04:25;22.30;57.10
34640;DHT22;22600;48.186;11.526;2023-03-19T06:06:51;22.40;57.50
34640;DHT22;22600;48.186;11.526;2023-03-19T06:09:16;22.30;57.40
34640;DHT22;22600;48.186;11.526;2023-03-19T06:11:42;22.40;57.60
34640;DHT22;22600;48.186;11.526;2023-03-19T06:14:07;22.40;57.50
34640;DHT22;22600;48.186;11.526;2023-03-19T06:16:33;22.30;57.60
34640;DHT22;22600;48.186;11.526;2023-03-19T06:18:58;22.40;57.20
34640;DHT22;22600;48.186;11.526;2023-03-19T06:21:24;22.40;57.50
34640;DHT22;22600;48.186;11.526;2023-03-19T06:23:54;22.30;57.50
34640;DHT22;22600;48.186;11.526;2023-03-19T06:26:20;22.40;58.00
34640;DHT22;22600;48.186;11.526;2023-03-19T06:28:45;22.30;58.30
34640;DHT22;22600;48.186;11.526;2023-03-19T06:31:10;22.30;58.50
34640;DHT22;22600;48.186;11.526;2023-03-19T06:33:36;22.30;58.70
34640;DHT22;22600;48.186;11.526;2023-03-19T06:36:01;22.40;58.60
34640;DHT22;22600;48.186;11.526;2023-03-19T06:38:27;25.20;59.90
34640;DHT22;22600;48.186;11.526;2023-03-19T06:40:53;22.40;58.50
34640;DHT22;22600;48.186;11.526;2023-03-19T06:43:18;22.30;58.40
34640;DHT22;22600;48.186;11.526;2023-03-19T06:45:44;22.40;58.40
34640;DHT22;22600;48.186;11.526;2023-03-19T06:48:10;22.30;58.10
34640;DHT22;22600;48.186;11.526;2023-03-19T06:50:35;22.40;58.80
34640;DHT22;22600;48.186;11.526;2023-03-19T06:53:01;22.30;58.30
34640;DHT22;22600;48.186;11.526;2023-03-19T06:55:26;22.30;58.10
34640;DHT22;22600;48.186;11.526;2023-03-19T06:57:52;22.40;58.10
34640;DHT22;22600;48.186;11.526;2023-03-19T07:00:17;22.30;57.70
34640;DHT22;22600;48.186;11.526;2023-03-19T07:02:43;22.40;57.60
34640;DHT22;22600;48.186;11.526;2023-03-19T07:05:09;22.40;58.30
34640;DHT22;22600;48.186;11.526;2023-03-19T07:07:35;22.40;58.30
34640;DHT22;22600;48.186;11.526;2023-03-19T07:10:00;22.40;57.80
34640;DHT22;22600;48.186;11.526;2023-03-19T07:12:26;22.40;57.90
34640;DHT22;22600;48.186;11.526;2023-03-19T07:14:52;22.40;58.30
34640;DHT22;22600;48.186;11.526;2023-03-19T07:17:18;26.20;61.10
34640;DHT22;22600;48.186;11.526;2023-03-19T07:19:43;22.40;57.80
34640;DHT22;22600;48.186;11.526;2023-03-19T07:22:09;22.40;57.70
34640;DHT22;22600;48.186;11.526;2023-03-19T07:24:34;22.40;57.90
34640;DHT22;22600;48.186;11.526;2023-03-19T07:27:00;22.40;58.20
34640;DHT22;22600;48.186;11.526;2023-03-19T07:29:26;22.40;58.10
34640;DHT22;22600;48.186;11.526;2023-03-19T07:31:51;22.40;58.20
34640;DHT22;22600;48.186;11.526;2023-03-19T07:34:17;22.40;58.50
34640;DHT22;22600;48.186;11.526;2023-03-19T07:36:42;22.40;58.70
34640;DHT22;22600;48.186;11.526;2023-03-19T07:39:08;22.40;58.90
34640;DHT22;22600;48.186;11.526;2023-03-19T07:41:34;22.40;59.20
34640;DHT22;22600;48.186;11.526;2023-03-19T07:43:59;22.40;59.30
34640;DHT22;22600;48.186;11.526;2023-03-19T07:46:25;22.40;59.20
34640;DHT22;22600;48.186;11.526;2023-03-19T07:48:50;22.40;59.30
34640;DHT22;22600;48.186;11.526;2023-03-19T07:51:16;25.90;61.70
34640;DHT22;22600;48.186;11.526;2023-03-19T07:53:42;22.40;60.10
34640;DHT22;22600;48.186;11.526;2023-03-19T07:56:07;22.40;59.50
34640;DHT22;22600;48.186;11.526;2023-03-19T07:58:33;22.40;59.40
34640;DHT22;22600;48.186;11.526;2023-03-19T08:00:58;22.40;59.10
34640;DHT22;22600;48.186;11.526;2023-03-19T08:03:24;22.40;58.80
34640;DHT22;22600;48.186;11.526;2023-03-19T08:05:49;22.30;58.60
34640;DHT22;22600;48.186;11.526;2023-03-19T08:08:15;22.40;58.90
34640;DHT22;22600;48.186;11.526;2023-03-19T08:10:41;22.50;59.20
34640;DHT22;22600;48.186;11.526;2023-03-19T08:13:07;22.40;59.00
34640;DHT22;22600;48.186;11.526;2023-03-19T08:15:32;22.40;58.80
34640;DHT22;22600;48.186;11.526;2023-03-19T08:17:58;22.40;58.80
34640;DHT22;22600;48.186;11.526;2023-03-19T08:20:24;22.30;58.70
34640;DHT22;22600;48.186;11.526;2023-03-19T08:22:50;22.50;59.30
34640;DHT22;22600;48.186;11.526;2023-03-19T08:25:16;22.40;59.30
34640;DHT22;22600;48.186;11.526;2023-03-19T08:27:41;22.40;59.70
34640;DHT22;22600;48.186;11.526;2023-03-19T08:30:07;22.40;59.30
34640;DHT22;22600;48.186;11.526;2023-03-19T08:32:33;22.40;59.20
34640;DHT22;22600;48.186;11.526;2023-03-19T08:34:59;25.40;60.80
34640;DHT22;22600;48.186;11.526;2023-03-19T08:37:24;22.40;59.40
34640;DHT22;22600;48.186;11.526;2023-03-19T08:39:50;22.40;59.50
34640;DHT22;22600;48.186;11.526;2023-03-19T08:42:16;22.40;59.70
34640;DHT22;22600;48.186;11.526;2023-03-19T08:44:42;22.40;59.80
34640;DHT22;22600;48.186;11.526;2023-03-19T08:47:07;22.40;59.90
34640;DHT22;22600;48.186;11.526;2023-03-19T08:49:33;22.40;60.00
34640;DHT22;22600;48.186;11.526;2023-03-19T08:51:58;22.50;60.10
34640;DHT22;22600;48.186;11.526;2023-03-19T08:54:24;22.50;60.20
34640;DHT22;22600;48.186;11.526;2023-03-19T08:56:49;22.50;60.20
34640;DHT22;22600;48.186;11.526;2023-03-19T08:59:15;22.40;60.30
34640;DHT22;22600;48.186;11.526;2023-03-19T09:01:41;22.50;60.30
34640;DHT22;22600;48.186;11.526;2023-03-19T09:04:06;22.50;60.30
34640;DHT22;22600;48.186;11.526;2023-03-19T09:06:31;22.60;60.30
34640;DHT22;22600;48.186;11.526;2023-03-19T09:08:57;22.50;60.30
34640;DHT22;22600;48.186;11.526;2023-03-19T09:11:22;22.60;60.40
34640;DHT22;22600;48.186;11.526;2023-03-19T09:13:48;22.60;60.40
34640;DHT22;22600;48.186;11.526;2023-03-19T09:16:13;22.60;60.30
34640;DHT22;22600;48.186;11.526;2023-03-19T09:18:39;22.60;60.40
34640;DHT22;22600;48.186;11.526;2023-03-19T09:21:05;21.60;59.80
34640;DHT22;22600;48.186;11.526;2023-03-19T09:23:30;22.60;60.40
34640;DHT22;22600;48.186;11.526;2023-03-19T09:25:56;22.60;60.40
34640;DHT22;22600;48.186;11.526;2023-03-19T09:28:21;22.60;60.30
34640;DHT22;22600;48.186;11.526;2023-03-19T09:30:47;22.60;60.30
34640;DHT22;22600;48.186;11.526;2023-03-19T09:33:14;24.70;61.70
34640;DHT22;22600;48.186;11.526;2023-03-19T09:35:40;22.80;60.50
34640;DHT22;22600;48.186;11.526;2023-03-19T09:38:06;22.60;60.10
34640;DHT22;22600;48.186;11.526;2023-03-19T09:40:40;22.70;59.20
34640;DHT22;22600;48.186;11.526;2023-03-19T09:45:50;22.70;59.40
34640;DHT22;22600;48.186;11.526;2023-03-19T09:48:23;22.80;59.50
34640;DHT22;22600;48.186;11.526;2023-03-19T09:50:53;22.70;59.60
34640;DHT22;22600;48.186;11.526;2023-03-19T09:53:22;22.70;59.70
34640;DHT22;22600;48.186;11.526;2023-03-19T09:55:50;22.70;59.70
34640;DHT22;22600;48.186;11.526;2023-03-19T09:58:20;22.70;59.70
34640;DHT22;22600;48.186;11.526;2023-03-19T10:00:48;22.70;59.80
34640;DHT22;22600;48.186;11.526;2023-03-19T10:10:59;22.70;59.90
34640;DHT22;22600;48.186;11.526;2023-03-19T10:13:34;22.80;59.90
34640;DHT22;22600;48.186;11.526;2023-03-19T10:16:04;23.40;60.20
34640;DHT22;22600;48.186;11.526;2023-03-19T10:18:31;22.70;59.90
34640;DHT22;22600;48.186;11.526;2023-03-19T10:21:02;22.80;59.90
34640;DHT22;22600;48.186;11.526;2023-03-19T10:23:41;21.30;59.10
34640;DHT22;22600;48.186;11.526;2023-03-19T10:26:10;22.80;59.90
34640;DHT22;22600;48.186;11.526;2023-03-19T10:28:36;22.90;60.00
34640;DHT22;22600;48.186;11.526;2023-03-19T10:31:13;22.80;59.90
34640;DHT22;22600;48.186;11.526;2023-03-19T10:33:55;22.80;59.90
34640;DHT22;22600;48.186;11.526;2023-03-19T10:36:22;22.80;59.80
34640;DHT22;22600;48.186;11.526;2023-03-19T10:38:50;22.90;60.00
34640;DHT22;22600;48.186;11.526;2023-03-19T10:44:05;22.90;59.90
34640;DHT22;22600;48.186;11.526;2023-03-19T10:46:38;22.90;60.00
34640;DHT22;22600;48.186;11.526;2023-03-19T10:49:03;22.90;60.00
34640;DHT22;22600;48.186;11.526;2023-03-19T10:51:29;22.80;59.90
34640;DHT22;22600;48.186;11.526;2023-03-19T10:53:55;22.90;60.00
34640;DHT22;22600;48.186;11.526;2023-03-19T10:56:25;22.80;59.90
34640;DHT22;22600;48.186;11.526;2023-03-19T10:58:55;22.80;59.90
34640;DHT22;22600;48.186;11.526;2023-03-19T11:01:21;22.90;60.00
34640;DHT22;22600;48.186;11.526;2023-03-19T11:03:51;22.90;59.90
34640;DHT22;22600;48.186;11.526;2023-03-19T11:06:32;22.90;60.00
34640;DHT22;22600;48.186;11.526;2023-03-19T11:11:43;22.90;59.80
34640;DHT22;22600;48.186;11.526;2023-03-19T11:14:13;22.90;59.90
34640;DHT22;22600;48.186;11.526;2023-03-19T11:16:47;22.90;59.80
34640;DHT22;22600;48.186;11.526;2023-03-19T11:19:32;22.90;59.80
34640;DHT22;22600;48.186;11.526;2023-03-19T11:24:35;22.90;59.80
34640;DHT22;22600;48.186;11.526;2023-03-19T11:27:00;22.90;59.80
34640;DHT22;22600;48.186;11.526;2023-03-19T11:29:27;23.00;59.80
34640;DHT22;22600;48.186;11.526;2023-03-19T11:37:00;23.00;59.80
34640;DHT22;22600;48.186;11.526;2023-03-19T12:02:40;23.00;58.80
34640;DHT22;22600;48.186;11.526;2023-03-19T12:23:16;23.00;59.20
34640;DHT22;22600;48.186;11.526;2023-03-19T12:25:57;23.00;59.50
34640;DHT22;22600;48.186;11.526;2023-03-19T12:28:29;23.00;59.30
34640;DHT22;22600;48.186;11.526;2023-03-19T12:35:51;23.00;59.30
34640;DHT22;22600;48.186;11.526;2023-03-19T12:38:19;23.00;59.40
34640;DHT22;22600;48.186;11.526;2023-03-19T12:40:52;23.00;59.40
34640;DHT22;22600;48.186;11.526;2023-03-19T12:46:11;23.00;59.40
34640;DHT22;22600;48.186;11.526;2023-03-19T12:48:38;23.00;59.40
34640;DHT22;22600;48.186;11.526;2023-03-19T12:51:08;23.00;59.50
34640;DHT22;22600;48.186;11.526;2023-03-19T12:53:39;23.00;59.50
34640;DHT22;22600;48.186;11.526;2023-03-19T12:56:08;23.00;59.50
34640;DHT22;22600;48.186;11.526;2023-03-19T13:01:13;23.00;59.50
34640;DHT22;22600;48.186;11.526;2023-03-19T13:03:44;23.10;59.60
34640;DHT22;22600;48.186;11.526;2023-03-19T13:06:18;23.00;59.50
34640;DHT22;22600;48.186;11.526;2023-03-19T13:08:47;23.00;59.60
34640;DHT22;22600;48.186;11.526;2023-03-19T13:11:57;23.00;59.60
34640;DHT22;22600;48.186;11.526;2023-03-19T13:14:05;23.10;59.70
34640;DHT22;22600;48.186;11.526;2023-03-19T13:16:53;23.10;59.80
34640;DHT22;22600;48.186;11.526;2023-03-19T13:19:33;23.10;59.70
34640;DHT22;22600;48.186;11.526;2023-03-19T13:22:05;23.10;59.80
34640;DHT22;22600;48.186;11.526;2023-03-19T13:24:37;23.30;59.90
34640;DHT22;22600;48.186;11.526;2023-03-19T13:27:03;23.10;59.80
34640;DHT22;22600;48.186;11.526;2023-03-19T13:29:31;23.80;60.20
34640;DHT22;22600;48.186;11.526;2023-03-19T13:32:02;23.10;59.80
34640;DHT22;22600;48.186;11.526;2023-03-19T13:34:36;23.10;59.80
34640;DHT22;22600;48.186;11.526;2023-03-19T13:37:12;23.10;59.80
34640;DHT22;22600;48.186;11.526;2023-03-19T13:39:38;23.10;59.80
34640;DHT22;22600;48.186;11.526;2023-03-19T13:42:20;23.10;59.90
34640;DHT22;22600;48.186;11.526;2023-03-19T13:44:50;23.10;59.90
34640;DHT22;22600;48.186;11.526;2023-03-19T13:57:53;23.10;60.00
34640;DHT22;22600;48.186;11.526;2023-03-19T14:00:59;26.90;62.70
34640;DHT22;22600;48.186;11.526;2023-03-19T14:03:21;23.10;60.00
34640;DHT22;22600;48.186;11.526;2023-03-19T14:05:47;23.10;60.00
34640;DHT22;22600;48.186;11.526;2023-03-19T14:08:18;23.10;60.00
34640;DHT22;22600;48.186;11.526;2023-03-19T14:10:48;23.00;60.00
34640;DHT22;22600;48.186;11.526;2023-03-19T14:13:18;23.10;60.10
34640;DHT22;22600;48.186;11.526;2023-03-19T14:15:49;23.00;60.00
34640;DHT22;22600;48.186;11.526;2023-03-19T14:18:16;23.10;60.10
34640;DHT22;22600;48.186;11.526;2023-03-19T14:20:44;23.10;60.10
34640;DHT22;22600;48.186;11.526;2023-03-19T14:23:18;23.10;60.20
34640;DHT22;22600;48.186;11.526;2023-03-19T14:26:00;23.10;60.20
34640;DHT22;22600;48.186;11.526;2023-03-19T14:28:31;23.00;60.10
34640;DHT22;22600;48.186;11.526;2023-03-19T14:30:57;25.20;61.50
34640;DHT22;22600;48.186;11.526;2023-03-19T14:33:27;23.10;60.20
34640;DHT22;22600;48.186;11.526;2023-03-19T14:35:53;23.00;60.10
34640;DHT22;22600;48.186;11.526;2023-03-19T14:40:50;23.10;60.20
34640;DHT22;22600;48.186;11.526;2023-03-19T14:43:41;23.10;60.20
34640;DHT22;22600;48.186;11.526;2023-03-19T14:46:17;23.10;60.20
34640;DHT22;22600;48.186;11.526;2023-03-19T14:51:47;23.10;60.20
34640;DHT22;22600;48.186;11.526;2023-03-19T14:56:40;23.10;60.20
34640;DHT22;22600;48.186;11.526;2023-03-19T14:59:07;23.10;60.20
34640;DHT22;22600;48.186;11.526;2023-03-19T15:01:37;25.50;61.80
34640;DHT22;22600;48.186;11.526;2023-03-19T15:04:06;23.10;60.20
34640;DHT22;22600;48.186;11.526;2023-03-19T15:06:34;23.10;60.20
34640;DHT22;22600;48.186;11.526;2023-03-19T15:09:00;23.10;60.20
34640;DHT22;22600;48.186;11.526;2023-03-19T15:18:46;23.10;60.40
34640;DHT22;22600;48.186;11.526;2023-03-19T15:21:11;23.10;60.30
34640;DHT22;22600;48.186;11.526;2023-03-19T15:23:37;23.10;60.50
34640;DHT22;22600;48.186;11.526;2023-03-19T15:26:03;23.10;60.50
34640;DHT22;22600;48.186;11.526;2023-03-19T15:28:42;23.10;60.60
34640;DHT22;22600;48.186;11.526;2023-03-19T15:31:08;23.10;60.60
34640;DHT22;22600;48.186;11.526;2023-03-19T15:33:37;23.10;60.60
34640;DHT22;22600;48.186;11.526;2023-03-19T15:38:29;23.10;60.60
34640;DHT22;22600;48.186;11.526;2023-03-19T15:40:56;23.10;60.60
34640;DHT22;22600;48.186;11.526;2023-03-19T15:43:21;23.10;60.60
34640;DHT22;22600;48.186;11.526;2023-03-19T15:45:48;23.10;60.60
34640;DHT22;22600;48.186;11.526;2023-03-19T15:48:31;23.10;60.60
34640;DHT22;22600;48.186;11.526;2023-03-19T15:51:00;23.10;60.60
34640;DHT22;22600;48.186;11.526;2023-03-19T15:53:28;23.20;60.70
34640;DHT22;22600;48.186;11.526;2023-03-19T15:55:55;23.10;60.70
34640;DHT22;22600;48.186;11.526;2023-03-19T15:58:22;23.10;60.60
34640;DHT22;22600;48.186;11.526;2023-03-19T16:00:50;23.10;60.60
34640;DHT22;22600;48.186;11.526;2023-03-19T16:03:17;23.10;60.60
34640;DHT22;22600;48.186;11.526;2023-03-19T16:05:43;23.10;60.70
34640;DHT22;22600;48.186;11.526;2023-03-19T16:08:20;27.00;63.40
34640;DHT22;22600;48.186;11.526;2023-03-19T16:10:46;23.10;60.50
34640;DHT22;22600;48.186;11.526;2023-03-19T16:15:48;23.10;60.50
34640;DHT22;22600;48.186;11.526;2023-03-19T16:20:43;23.10;60.60
34640;DHT22;22600;48.186;11.526;2023-03-19T16:23:18;23.10;60.50
34640;DHT22;22600;48.186;11.526;2023-03-19T16:25:45;23.10;60.60
34640;DHT22;22600;48.186;11.526;2023-03-19T16:28:17;23.10;60.60
34640;DHT22;22600;48.186;11.526;2023-03-19T16:30:46;23.10;60.60
34640;DHT22;22600;48.186;11.526;2023-03-19T16:33:12;23.10;60.70
34640;DHT22;22600;48.186;11.526;2023-03-19T16:35:38;23.10;60.70
34640;DHT22;22600;48.186;11.526;2023-03-19T16:40:38;23.10;60.80
34640;DHT22;22600;48.186;11.526;2023-03-19T16:43:05;23.10;60.80
34640;DHT22;22600;48.186;11.526;2023-03-19T16:45:31;23.10;60.80
34640;DHT22;22600;48.186;11.526;2023-03-19T16:47:59;23.10;60.80
34640;DHT22;22600;48.186;11.526;2023-03-19T16:52:53;26.30;63.10
34640;DHT22;22600;48.186;11.526;2023-03-19T16:55:33;23.10;60.90
34640;DHT22;22600;48.186;11.526;2023-03-19T16:58:18;23.10;61.00
34640;DHT22;22600;48.186;11.526;2023-03-19T17:00:44;23.10;60.90
34640;DHT22;22600;48.186;11.526;2023-03-19T17:03:11;23.10;61.00
34640;DHT22;22600;48.186;11.526;2023-03-19T17:05:37;23.10;61.00
34640;DHT22;22600;48.186;11.526;2023-03-19T17:08:02;23.10;61.00
34640;DHT22;22600;48.186;11.526;2023-03-19T17:10:28;23.10;61.00
34640;DHT22;22600;48.186;11.526;2023-03-19T17:12:54;23.10;60.80
34640;DHT22;22600;48.186;11.526;2023-03-19T17:17:46;23.10;59.50
34640;DHT22;22600;48.186;11.526;2023-03-19T17:20:17;23.10;59.20